createdAt,value
2023-03-01T00:01:43.020Z,2.85
2023-03-01T00:04:11.108Z,2.91
2023-03-01T00:06:40.662Z,2.65
2023-03-01T00:09:08.785Z,2.93
2023-03-01T00:11:37.003Z,2.83
2023-03-01T00:14:07.709Z,2.93
2023-03-01T00:16:39.731Z,2.84
2023-03-01T00:19:09.049Z,3.01
2023-03-01T00:21:37.383Z,3.11
2023-03-01T00:24:07.550Z,2.97
2023-03-01T00:26:35.643Z,3.09
2023-03-01T00:29:03.703Z,3.07
2023-03-01T00:31:34.082Z,2.97
2023-03-01T00:34:04.086Z,2.89
2023-03-01T00:36:34.321Z,2.81
2023-03-01T00:39:04.144Z,2.79
2023-03-01T00:41:35.719Z,2.79
2023-03-01T00:44:04.330Z,1.70
2023-03-01T00:46:32.891Z,2.77
2023-03-01T00:49:03.115Z,2.77
2023-03-01T00:51:31.727Z,2.66
2023-03-01T00:54:01.601Z,2.65
2023-03-01T00:56:29.957Z,2.84
2023-03-01T00:58:59.777Z,2.85
2023-03-01T01:01:31.708Z,2.89
2023-03-01T01:04:01.677Z,1.98
2023-03-01T01:06:31.785Z,2.81
2023-03-01T01:09:00.559Z,2.82
2023-03-01T01:11:31.443Z,2.78
2023-03-01T01:14:01.440Z,2.79
2023-03-01T01:16:30.851Z,2.75
2023-03-01T01:18:59.634Z,2.84
2023-03-01T01:21:28.471Z,2.85
2023-03-01T01:23:56.671Z,2.75
2023-03-01T01:26:26.854Z,2.85
2023-03-01T01:28:55.554Z,2.86
2023-03-01T01:31:25.943Z,2.88
2023-03-01T01:33:55.092Z,2.90
2023-03-01T01:36:23.434Z,2.91
2023-03-01T01:38:51.640Z,2.83
2023-03-01T01:41:20.797Z,2.84
2023-03-01T01:43:50.705Z,2.84
2023-03-01T01:46:28.181Z,2.79
2023-03-01T01:49:00.977Z,2.78
2023-03-01T01:51:39.581Z,2.60
2023-03-01T01:54:12.641Z,2.73
2023-03-01T01:56:44.507Z,2.74
2023-03-01T01:59:13.942Z,2.74
2023-03-01T02:01:43.794Z,2.56
2023-03-01T02:04:12.149Z,2.81
2023-03-01T02:06:46.926Z,2.06
2023-03-01T02:09:17.977Z,2.87
2023-03-01T02:11:46.711Z,2.71
2023-03-01T02:14:14.979Z,2.87
2023-03-01T02:16:45.252Z,2.38
2023-03-01T02:19:27.563Z,2.81
2023-03-01T02:22:04.722Z,2.84
2023-03-01T02:24:42.631Z,2.82
2023-03-01T02:27:13.217Z,2.60
2023-03-01T02:29:47.460Z,1.22
2023-03-01T02:32:17.410Z,2.62
2023-03-01T02:34:45.755Z,2.26
2023-03-01T02:37:21.595Z,2.55
2023-03-01T02:39:52.875Z,2.51
2023-03-01T02:42:27.295Z,2.49
2023-03-01T02:44:57.142Z,2.57
2023-03-01T02:47:25.349Z,2.62
2023-03-01T02:49:53.444Z,2.28
2023-03-01T02:52:33.736Z,2.47
2023-03-01T02:55:05.343Z,2.57
2023-03-01T02:57:35.876Z,2.54
2023-03-01T03:00:09.151Z,2.58
2023-03-01T03:02:38.345Z,2.57
2023-03-01T03:05:09.421Z,2.55
2023-03-01T03:07:40.165Z,2.57
2023-03-01T03:10:12.339Z,2.14
2023-03-01T03:12:40.856Z,2.55
2023-03-01T03:15:13.884Z,2.54
2023-03-01T03:17:46.235Z,2.55
2023-03-01T03:20:20.218Z,2.48
2023-03-01T03:22:49.013Z,2.78
2023-03-01T03:25:17.932Z,2.64
2023-03-01T03:27:47.650Z,2.67
2023-03-01T03:30:20.178Z,1.88
2023-03-01T03:32:53.452Z,2.71
2023-03-01T03:35:23.494Z,2.62
2023-03-01T03:38:07.511Z,2.53
2023-03-01T03:40:37.526Z,2.74
2023-03-01T03:43:07.817Z,2.64
2023-03-01T03:45:37.779Z,2.75
2023-03-01T03:48:08.941Z,1.42
2023-03-01T03:50:37.524Z,2.65
2023-03-01T03:53:07.119Z,2.56
2023-03-01T03:55:35.992Z,2.68
2023-03-01T03:58:08.087Z,2.61
2023-03-01T04:00:39.638Z,2.49
2023-03-01T04:03:08.164Z,2.29
2023-03-01T04:05:36.601Z,2.28
2023-03-01T04:08:08.372Z,2.57
2023-03-01T04:10:38.589Z,2.55
2023-03-01T04:13:06.900Z,2.55
2023-03-01T04:15:35.926Z,2.52
2023-03-01T04:18:06.263Z,1.94
2023-03-01T04:20:37.313Z,2.57
2023-03-01T04:23:14.398Z,2.58
2023-03-01T04:25:44.357Z,2.48
2023-03-01T04:28:12.720Z,2.64
2023-03-01T04:30:42.484Z,2.63
2023-03-01T04:33:12.957Z,2.58
2023-03-01T04:35:41.704Z,2.72
2023-03-01T04:38:10.121Z,2.74
2023-03-01T04:40:38.371Z,2.66
2023-03-01T04:43:06.976Z,2.35
2023-03-01T04:45:36.749Z,2.50
2023-03-01T04:48:05.367Z,2.62
2023-03-01T04:50:35.262Z,2.43
2023-03-01T04:53:03.583Z,2.65
2023-03-01T04:55:32.620Z,2.74
2023-03-01T04:58:01.089Z,2.21
2023-03-01T05:00:29.256Z,2.42
2023-03-01T05:02:59.100Z,2.66
2023-03-01T05:05:29.318Z,2.63
2023-03-01T05:08:00.935Z,2.53
2023-03-01T05:10:31.468Z,2.61
2023-03-01T05:13:00.144Z,2.62
2023-03-01T05:15:29.665Z,2.63
2023-03-01T05:18:00.400Z,1.71
2023-03-01T05:20:29.611Z,2.67
2023-03-01T05:23:00.792Z,2.67
2023-03-01T05:25:34.207Z,2.51
2023-03-01T05:28:05.446Z,2.33
2023-03-01T05:30:35.153Z,2.65
2023-03-01T05:33:03.622Z,2.71
2023-03-01T05:35:33.820Z,2.29
2023-03-01T05:38:03.478Z,2.86
2023-03-01T05:40:31.766Z,2.78
2023-03-01T05:42:59.931Z,2.86
2023-03-01T05:45:29.489Z,2.84
2023-03-01T05:47:57.662Z,2.51
2023-03-01T05:50:28.158Z,2.48
2023-03-01T05:53:00.735Z,2.55
2023-03-01T05:55:32.104Z,1.52
2023-03-01T05:58:01.666Z,2.13
2023-03-01T06:00:30.869Z,2.49
2023-03-01T06:03:00.127Z,2.37
2023-03-01T06:05:29.550Z,1.85
2023-03-01T06:08:00.743Z,2.52
2023-03-01T06:10:30.842Z,2.72
2023-03-01T06:13:00.313Z,2.74
2023-03-01T06:15:29.066Z,2.71
2023-03-01T06:18:00.135Z,2.52
2023-03-01T06:20:32.758Z,2.65
2023-03-01T06:23:01.250Z,2.68
2023-03-01T06:25:30.847Z,2.58
2023-03-01T06:27:59.081Z,2.78
2023-03-01T06:30:28.661Z,2.88
2023-03-01T06:33:02.457Z,2.89
2023-03-01T06:35:31.741Z,2.92
2023-03-01T06:38:01.025Z,2.73
2023-03-01T06:40:32.224Z,2.40
2023-03-01T06:43:00.749Z,2.85
2023-03-01T06:45:29.145Z,2.96
2023-03-01T06:48:05.105Z,2.59
2023-03-01T06:50:33.895Z,2.64
2023-03-01T06:53:02.262Z,2.80
2023-03-01T06:55:32.403Z,2.94
2023-03-01T06:58:01.853Z,2.13
2023-03-01T07:00:31.011Z,3.11
2023-03-01T07:03:03.060Z,3.11
2023-03-01T07:05:31.910Z,2.52
2023-03-01T07:08:00.174Z,3.03
2023-03-01T07:10:28.439Z,2.68
2023-03-01T07:13:01.490Z,2.89
2023-03-01T07:15:30.199Z,2.91
2023-03-01T07:17:59.014Z,3.00
2023-03-01T07:20:27.332Z,3.04
2023-03-01T07:22:57.566Z,3.11
2023-03-01T07:25:25.856Z,3.13
2023-03-01T07:27:54.786Z,3.12
2023-03-01T07:30:27.097Z,2.65
2023-03-01T07:32:55.919Z,2.93
2023-03-01T07:35:24.565Z,3.13
2023-03-01T07:37:52.813Z,3.14
2023-03-01T07:40:21.531Z,3.11
2023-03-01T07:42:49.845Z,3.09
2023-03-01T07:45:18.210Z,3.20
2023-03-01T07:47:47.865Z,3.21
2023-03-01T07:50:16.619Z,3.19
2023-03-01T07:52:47.201Z,3.09
2023-03-01T07:55:15.730Z,3.02
2023-03-01T07:57:46.438Z,2.90
2023-03-01T08:00:15.655Z,2.73
2023-03-01T08:02:43.879Z,2.72
2023-03-01T08:05:13.741Z,2.96
2023-03-01T08:07:42.128Z,3.03
2023-03-01T08:10:11.955Z,3.02
2023-03-01T08:12:40.236Z,3.17
2023-03-01T08:15:09.796Z,3.12
2023-03-01T08:17:38.078Z,3.05
2023-03-01T08:20:08.257Z,2.49
2023-03-01T08:22:37.905Z,2.95
2023-03-01T08:25:06.859Z,3.04
2023-03-01T08:27:35.108Z,3.20
2023-03-01T08:30:03.355Z,3.07
2023-03-01T08:32:31.645Z,3.02
2023-03-01T08:34:59.842Z,3.07
2023-03-01T08:37:28.892Z,3.32
2023-03-01T08:39:58.652Z,3.35
2023-03-01T08:42:26.890Z,3.38
2023-03-01T08:44:55.185Z,2.55
2023-03-01T08:47:23.393Z,3.29
2023-03-01T08:49:52.796Z,3.41
2023-03-01T08:52:21.610Z,3.54
2023-03-01T08:54:50.284Z,3.34
2023-03-01T08:57:20.210Z,3.55
2023-03-01T08:59:48.425Z,3.53
2023-03-01T09:02:18.596Z,3.56
2023-03-01T09:04:47.068Z,3.39
2023-03-01T09:07:15.286Z,3.43
2023-03-01T09:09:43.595Z,3.30
2023-03-01T09:12:12.308Z,3.36
2023-03-01T09:14:42.371Z,3.54
2023-03-01T09:17:10.779Z,3.57
2023-03-01T09:19:39.178Z,3.64
2023-03-01T09:22:07.384Z,3.58
2023-03-01T09:24:35.661Z,3.61
2023-03-01T09:27:04.059Z,3.57
2023-03-01T09:29:32.250Z,3.55
2023-03-01T09:32:01.942Z,3.06
2023-03-01T09:34:30.228Z,3.64
2023-03-01T09:37:01.119Z,3.77
2023-03-01T09:39:29.304Z,3.81
2023-03-01T09:42:03.384Z,3.75
2023-03-01T09:44:37.965Z,3.83
2023-03-01T09:47:11.337Z,3.98
2023-03-01T09:49:49.722Z,3.89
2023-03-01T09:52:27.769Z,3.89
2023-03-01T09:55:00.368Z,4.13
2023-03-01T09:57:35.303Z,4.16
2023-03-01T10:00:39.437Z,4.21
2023-03-01T10:03:18.882Z,4.27
2023-03-01T10:05:57.316Z,4.22
2023-03-01T10:08:37.005Z,4.12
2023-03-01T10:11:07.835Z,4.14
2023-03-01T10:13:53.906Z,4.06
2023-03-01T10:16:28.486Z,4.18
2023-03-01T10:19:02.671Z,4.27
2023-03-01T10:21:32.883Z,3.61
2023-03-01T10:24:12.832Z,4.29
2023-03-01T10:26:52.557Z,4.42
2023-03-01T10:29:26.458Z,4.54
2023-03-01T10:31:56.345Z,4.56
2023-03-01T10:34:31.461Z,4.45
2023-03-01T10:37:10.815Z,4.45
2023-03-01T10:39:39.211Z,4.28
2023-03-01T10:42:21.705Z,4.49
2023-03-01T10:44:51.311Z,4.44
2023-03-01T10:47:22.799Z,4.45
2023-03-01T10:50:00.265Z,4.41
2023-03-01T10:52:34.549Z,4.42
2023-03-01T10:55:07.204Z,4.29
2023-03-01T10:57:42.800Z,4.31
2023-03-01T11:00:24.664Z,4.25
2023-03-01T11:03:04.906Z,4.02
2023-03-01T11:05:35.557Z,3.67
2023-03-01T11:08:05.461Z,3.95
2023-03-01T11:10:36.880Z,4.31
2023-03-01T11:13:10.193Z,4.38
2023-03-01T11:15:38.606Z,4.47
2023-03-01T11:18:14.006Z,4.49
2023-03-01T11:20:44.429Z,4.31
2023-03-01T11:23:14.816Z,4.59
2023-03-01T11:25:45.923Z,4.68
2023-03-01T11:28:18.759Z,4.61
2023-03-01T11:31:06.834Z,4.77
2023-03-01T11:33:42.234Z,4.81
2023-03-01T11:36:19.548Z,4.72
2023-03-01T11:38:49.627Z,4.59
2023-03-01T11:41:20.662Z,4.90
2023-03-01T11:43:55.099Z,4.92
2023-03-01T11:46:54.025Z,4.99
2023-03-01T11:49:47.172Z,5.12
2023-03-01T11:52:28.843Z,5.19
2023-03-01T11:55:11.544Z,5.15
2023-03-01T11:57:59.501Z,4.86
2023-03-01T12:00:50.605Z,4.84
2023-03-01T12:03:43.349Z,4.94
2023-03-01T12:06:25.297Z,5.03
2023-03-01T12:09:05.183Z,5.23
2023-03-01T12:11:46.997Z,5.33
2023-03-01T12:14:29.947Z,5.37
2023-03-01T12:17:16.098Z,5.64
2023-03-01T12:20:04.539Z,5.76
2023-03-01T12:22:34.488Z,5.92
2023-03-01T12:25:24.062Z,5.65
2023-03-01T12:28:26.421Z,6.08
2023-03-01T12:31:14.072Z,5.73
2023-03-01T12:33:53.812Z,5.74
2023-03-01T12:36:44.033Z,5.61
2023-03-01T12:39:26.797Z,5.74
2023-03-01T12:42:07.716Z,5.44
2023-03-01T12:44:47.855Z,5.60
2023-03-01T12:47:30.059Z,5.67
2023-03-01T12:50:02.402Z,5.75
2023-03-01T12:52:38.449Z,5.81
2023-03-01T12:55:28.366Z,5.71
2023-03-01T12:58:10.823Z,5.79
2023-03-01T13:00:46.038Z,5.12
2023-03-01T13:03:27.975Z,5.94
2023-03-01T13:06:10.485Z,6.07
2023-03-01T13:08:46.176Z,6.01
2023-03-01T13:11:20.556Z,5.93
2023-03-01T13:13:52.711Z,6.05
2023-03-01T13:16:43.962Z,6.19
2023-03-01T13:19:17.456Z,6.15
2023-03-01T13:21:46.824Z,6.22
2023-03-01T13:24:28.848Z,6.34
2023-03-01T13:27:14.139Z,6.37
2023-03-01T13:29:51.915Z,6.39
2023-03-01T13:32:34.398Z,6.33
2023-03-01T13:35:43.661Z,6.32
2023-03-01T13:38:42.260Z,6.36
2023-03-01T13:41:10.720Z,6.31
2023-03-01T13:43:40.802Z,6.27
2023-03-01T13:46:21.020Z,6.36
2023-03-01T13:48:54.008Z,6.39
2023-03-01T13:51:26.717Z,6.38
2023-03-01T13:53:57.789Z,6.36
2023-03-01T13:56:29.627Z,6.39
2023-03-01T13:59:03.928Z,6.15
2023-03-01T14:01:35.780Z,6.18
2023-03-01T14:04:06.186Z,6.34
2023-03-01T14:06:36.759Z,6.04
2023-03-01T14:09:12.336Z,6.33
2023-03-01T14:12:07.553Z,6.15
2023-03-01T14:14:51.143Z,6.21
2023-03-01T14:17:35.603Z,6.18
2023-03-01T14:20:11.655Z,6.16
2023-03-01T14:22:44.012Z,6.11
2023-03-01T14:25:34.330Z,5.64
2023-03-01T14:28:06.640Z,6.29
2023-03-01T14:30:38.779Z,6.08
2023-03-01T14:33:20.709Z,6.30
2023-03-01T14:35:59.707Z,6.24
2023-03-01T14:38:35.846Z,6.22
2023-03-01T14:41:07.592Z,6.24
2023-03-01T14:43:37.512Z,6.08
2023-03-01T14:46:06.168Z,6.14
2023-03-01T14:48:35.840Z,6.13
2023-03-01T14:51:07.483Z,6.19
2023-03-01T14:53:45.858Z,6.06
2023-03-01T14:56:19.973Z,5.61
2023-03-01T14:58:49.567Z,5.69
2023-03-01T15:01:20.262Z,5.92
2023-03-01T15:03:51.642Z,5.94
2023-03-01T15:06:21.700Z,6.02
2023-03-01T15:08:52.545Z,6.01
2023-03-01T15:11:25.929Z,5.94
2023-03-01T15:13:55.171Z,5.47
2023-03-01T15:16:26.824Z,5.71
2023-03-01T15:18:58.980Z,5.54
2023-03-01T15:21:30.135Z,5.00
2023-03-01T15:24:02.410Z,5.61
2023-03-01T15:26:32.823Z,5.57
2023-03-01T15:29:02.623Z,5.60
2023-03-01T15:31:36.235Z,5.53
2023-03-01T15:34:24.525Z,5.51
2023-03-01T15:36:54.350Z,5.59
2023-03-01T15:39:44.534Z,5.60
2023-03-01T15:42:14.768Z,5.31
2023-03-01T15:44:46.197Z,5.49
2023-03-01T15:47:32.133Z,4.38
2023-03-01T15:50:03.480Z,4.63
2023-03-01T15:52:37.872Z,5.45
2023-03-01T15:55:09.422Z,5.32
2023-03-01T15:57:37.625Z,5.33
2023-03-01T16:00:12.512Z,5.06
2023-03-01T16:02:40.791Z,5.26
2023-03-01T16:05:21.305Z,4.54
2023-03-01T16:07:49.663Z,5.33
2023-03-01T16:10:18.488Z,5.42
2023-03-01T16:12:48.457Z,4.77
2023-03-01T16:15:19.323Z,5.31
2023-03-01T16:17:47.751Z,5.17
2023-03-01T16:20:27.298Z,5.16
2023-03-01T16:22:56.796Z,5.01
2023-03-01T16:25:24.966Z,5.06
2023-03-01T16:27:53.412Z,5.11
2023-03-01T16:30:23.972Z,5.08
2023-03-01T16:32:52.699Z,4.87
2023-03-01T16:35:24.485Z,4.91
2023-03-01T16:37:53.731Z,4.91
2023-03-01T16:40:24.104Z,4.95
2023-03-01T16:42:52.953Z,4.55
2023-03-01T16:45:25.350Z,4.94
2023-03-01T16:47:55.786Z,4.97
2023-03-01T16:50:25.844Z,4.95
2023-03-01T16:52:54.106Z,4.84
2023-03-01T16:55:22.433Z,4.80
2023-03-01T16:57:51.011Z,4.79
2023-03-01T17:00:19.564Z,4.85
2023-03-01T17:02:47.829Z,4.88
2023-03-01T17:05:16.025Z,4.88
2023-03-01T17:07:45.681Z,4.65
2023-03-01T17:10:13.890Z,4.71
2023-03-01T17:12:42.020Z,4.79
2023-03-01T17:15:13.074Z,4.79
2023-03-01T17:17:41.320Z,4.78
2023-03-01T17:20:10.983Z,4.44
2023-03-01T17:22:39.285Z,4.67
2023-03-01T17:25:11.894Z,4.77
2023-03-01T17:27:40.926Z,4.78
2023-03-01T17:30:11.703Z,4.80
2023-03-01T17:32:40.303Z,4.73
2023-03-01T17:35:12.030Z,4.56
2023-03-01T17:37:46.607Z,4.78
2023-03-01T17:40:16.468Z,4.80
2023-03-01T17:42:44.757Z,4.82
2023-03-01T17:45:13.638Z,4.63
2023-03-01T17:47:41.974Z,4.80
2023-03-01T17:50:12.438Z,4.63
2023-03-01T17:52:41.495Z,4.72
2023-03-01T17:55:10.933Z,4.69
2023-03-01T17:57:42.001Z,4.48
2023-03-01T18:00:13.256Z,4.68
2023-03-01T18:02:41.509Z,4.66
2023-03-01T18:05:10.613Z,3.96
2023-03-01T18:07:39.180Z,4.85
2023-03-01T18:10:08.066Z,4.68
2023-03-01T18:12:36.222Z,4.59
2023-03-01T18:15:06.276Z,4.37
2023-03-01T18:17:34.500Z,4.59
2023-03-01T18:20:02.690Z,4.69
2023-03-01T18:22:31.051Z,4.71
2023-03-01T18:24:59.270Z,4.59
2023-03-01T18:27:27.469Z,4.31
2023-03-01T18:29:56.534Z,4.51
2023-03-01T18:32:26.775Z,3.99
2023-03-01T18:34:55.041Z,4.51
2023-03-01T18:37:23.200Z,4.39
2023-03-01T18:39:52.762Z,4.50
2023-03-01T18:42:22.146Z,4.04
2023-03-01T18:44:50.669Z,4.35
2023-03-01T18:47:18.788Z,4.47
2023-03-01T18:49:48.289Z,4.31
2023-03-01T18:52:16.845Z,4.58
2023-03-01T18:54:45.012Z,4.56
2023-03-01T18:57:13.144Z,4.54
2023-03-01T18:59:41.317Z,4.06
2023-03-01T19:02:09.500Z,4.54
2023-03-01T19:04:37.708Z,4.58
2023-03-01T19:07:08.164Z,4.58
2023-03-01T19:09:36.338Z,4.64
2023-03-01T19:12:06.271Z,4.73
2023-03-01T19:14:34.660Z,4.77
2023-03-01T19:17:02.844Z,4.53
2023-03-01T19:19:30.950Z,4.55
2023-03-01T19:22:05.680Z,4.54
2023-03-01T19:24:36.094Z,4.36
2023-03-01T19:27:04.317Z,4.27
2023-03-01T19:29:32.752Z,4.19
2023-03-01T19:32:00.908Z,4.16
2023-03-01T19:34:29.045Z,4.22
2023-03-01T19:36:57.924Z,4.23
2023-03-01T19:39:27.547Z,4.10
2023-03-01T19:41:57.590Z,4.03
2023-03-01T19:44:25.746Z,3.82
2023-03-01T19:46:54.302Z,3.92
2023-03-01T19:49:22.660Z,3.90
2023-03-01T19:51:51.001Z,3.68
2023-03-01T19:54:20.311Z,3.75
2023-03-01T19:56:48.642Z,3.83
2023-03-01T19:59:19.437Z,3.83
2023-03-01T20:01:47.596Z,3.59
2023-03-01T20:04:15.771Z,3.30
2023-03-01T20:06:46.755Z,3.71
2023-03-01T20:09:21.747Z,3.61
2023-03-01T20:11:50.924Z,3.64
2023-03-01T20:14:23.750Z,3.72
2023-03-01T20:16:52.410Z,3.75
2023-03-01T20:19:20.967Z,3.79
2023-03-01T20:21:49.094Z,3.71
2023-03-01T20:24:17.377Z,3.91
2023-03-01T20:26:45.461Z,3.88
2023-03-01T20:29:13.842Z,3.89
2023-03-01T20:31:43.521Z,3.90
2023-03-01T20:34:14.375Z,3.75
2023-03-01T20:36:44.387Z,3.83
2023-03-01T20:39:12.974Z,3.85
2023-03-01T20:41:41.147Z,3.85
2023-03-01T20:44:09.856Z,3.84
2023-03-01T20:46:38.690Z,3.78
2023-03-01T20:49:08.613Z,3.95
2023-03-01T20:51:38.010Z,3.89
2023-03-01T20:54:06.814Z,3.84
2023-03-01T20:56:35.671Z,3.78
2023-03-01T20:59:05.272Z,3.90
2023-03-01T21:01:33.948Z,3.80
2023-03-01T21:04:02.362Z,3.71
2023-03-01T21:06:32.495Z,4.04
2023-03-01T21:09:00.867Z,3.89
2023-03-01T21:11:29.163Z,3.94
2023-03-01T21:13:57.832Z,3.93
2023-03-01T21:16:26.396Z,3.90
2023-03-01T21:18:55.095Z,3.77
2023-03-01T21:21:25.075Z,3.94
2023-03-01T21:23:58.205Z,3.84
2023-03-01T21:26:28.618Z,3.97
2023-03-01T21:28:58.803Z,3.76
2023-03-01T21:31:29.525Z,3.98
2023-03-01T21:34:00.091Z,3.55
2023-03-01T21:36:30.784Z,4.12
2023-03-01T21:39:02.662Z,4.23
2023-03-01T21:41:33.408Z,4.13
2023-03-01T21:44:03.297Z,4.00
2023-03-01T21:46:34.513Z,4.13
2023-03-01T21:49:04.837Z,4.18
2023-03-01T21:51:33.822Z,3.57
2023-03-01T21:54:03.758Z,3.33
2023-03-01T21:56:35.168Z,4.25
2023-03-01T21:59:05.132Z,4.16
2023-03-01T22:01:33.486Z,3.48
2023-03-01T22:04:03.509Z,3.93
2023-03-01T22:06:34.486Z,3.92
2023-03-01T22:09:08.783Z,4.16
2023-03-01T22:11:39.594Z,3.96
2023-03-01T22:14:08.633Z,4.19
2023-03-01T22:16:38.652Z,4.15
2023-03-01T22:19:08.039Z,4.27
2023-03-01T22:21:37.001Z,4.29
2023-03-01T22:24:07.980Z,4.05
2023-03-01T22:26:38.257Z,4.02
2023-03-01T22:29:08.771Z,4.05
2023-03-01T22:31:37.257Z,4.03
2023-03-01T22:34:06.217Z,2.87
2023-03-01T22:36:35.078Z,3.93
2023-03-01T22:39:05.052Z,3.88
2023-03-01T22:41:37.172Z,3.98
2023-03-01T22:44:06.095Z,3.98
2023-03-01T22:46:35.004Z,4.04
2023-03-01T22:49:05.212Z,4.02
2023-03-01T22:51:35.288Z,4.01
2023-03-01T22:54:03.840Z,4.13
2023-03-01T22:56:34.152Z,4.05
2023-03-01T22:59:08.302Z,4.09
2023-03-01T23:01:37.255Z,4.12
2023-03-01T23:04:05.623Z,3.23
2023-03-01T23:06:34.275Z,4.23
2023-03-01T23:09:04.403Z,4.04
2023-03-01T23:11:32.999Z,4.23
2023-03-01T23:14:01.176Z,4.25
2023-03-01T23:16:31.292Z,4.30
2023-03-01T23:18:59.848Z,4.22
2023-03-01T23:21:28.887Z,4.09
2023-03-01T23:23:57.537Z,4.24
2023-03-01T23:26:27.427Z,3.36
2023-03-01T23:28:56.579Z,4.34
2023-03-01T23:31:25.698Z,4.13
2023-03-01T23:33:55.365Z,4.26
2023-03-01T23:36:25.444Z,4.12
2023-03-01T23:38:56.812Z,4.38
2023-03-01T23:41:28.026Z,4.35
2023-03-01T23:43:57.870Z,4.44
2023-03-01T23:46:27.948Z,4.42
2023-03-01T23:48:58.208Z,4.44
2023-03-01T23:51:27.047Z,4.38
2023-03-01T23:53:59.364Z,3.67
2023-03-01T23:56:29.435Z,4.45
2023-03-01T23:58:59.773Z,4.47
